This is the latest recevied weather packets stored in our database for station/object K5MGY. If no packets are shown the sender has not sent any weather packets the latest 1 day(s).
| Time | Temp. | Humidity | Pressure | Rain* | Wind** | Luminosity | Snow |
|---|---|---|---|---|---|---|---|
| 1778027418 | 27.78° C | 58% | 1029 hPa | 0 mm | 0 m/s | 7 W/m² | - |
| 1778027114 | 28.33° C | 57% | 1028.8 hPa | 0 mm | 0 m/s | 8 W/m² | - |
| 1778026809 | 28.33° C | 58% | 1028.9 hPa | 0 mm | 0 m/s | 4 W/m² | - |
| 1778026506 | 28.89° C | 57% | 1029.2 hPa | 0 mm | 0 m/s | 5 W/m² | - |
| 1778026204 | 29.44° C | 59% | 1028.9 hPa | 0 mm | 0 m/s | 4 W/m² | - |
| 1778025901 | 29.44° C | 66% | 1028.8 hPa | 0 mm | 0.45 m/s, 189° | 7 W/m² | - |
| 1778025598 | 29.44° C | 66% | 1028.4 hPa | 0 mm | 0.89 m/s, 4° | 14 W/m² | - |
| 1778025296 | 30° C | 65% | 1028.3 hPa | 0 mm | 0.89 m/s, 157° | 23 W/m² | - |
| 1778024992 | 30° C | 66% | 1028.4 hPa | 0 mm | 0.45 m/s, 262° | 18 W/m² | - |
| 1778024690 | 30° C | 65% | 1028.3 hPa | 0 mm | 0 m/s | 20 W/m² | - |
| 1778024387 | 30° C | 65% | 1028 hPa | 0 mm | 0.45 m/s, 220° | 22 W/m² | - |
| 1778024084 | 30° C | 64% | 1028.2 hPa | 0 mm | 1.79 m/s, 249° | 38 W/m² | - |
| 1778023781 | 30.56° C | 64% | 1028 hPa | 0 mm | 1.34 m/s, 180° | 59 W/m² | - |
| 1778023480 | 30.56° C | 63% | 1027.8 hPa | 0 mm | 0.89 m/s, 163° | 68 W/m² | - |
| 1778023176 | 31.11° C | 62% | 1027.7 hPa | 0 mm | 1.79 m/s, 131° | 66 W/m² | - |
| 1778022873 | 31.11° C | 62% | 1027.9 hPa | 0 mm | 0.89 m/s, 162° | 78 W/m² | - |
| 1778022572 | 31.11° C | 62% | 1028 hPa | 0 mm | 0.89 m/s, 209° | 99 W/m² | - |
| 1778022269 | 31.67° C | 61% | 1028.1 hPa | 0 mm | 0.89 m/s, 207° | 108 W/m² | - |
| 1778021965 | 31.67° C | 59% | 1027.9 hPa | 0 mm | 1.34 m/s, 172° | 90 W/m² | - |
| 1778021663 | 32.22° C | 55% | 1027.5 hPa | 0 mm | 1.79 m/s, 199° | 76 W/m² | - |
| 1778021358 | 32.22° C | 53% | 1027.4 hPa | 0 mm | 0.89 m/s, 179° | 66 W/m² | - |
| 1778021055 | 32.78° C | 54% | 1027.5 hPa | 0 mm | 0.89 m/s, 176° | 76 W/m² | - |
| 1778020752 | 32.22° C | 54% | 1027.6 hPa | 0 mm | 2.24 m/s, 206° | 80 W/m² | - |
| 1778020449 | 32.78° C | 54% | 1027.6 hPa | 0 mm | 0.89 m/s, 197° | 80 W/m² | - |
| 1778020145 | 32.78° C | 54% | 1027.6 hPa | 0 mm | 0.89 m/s, 143° | 68 W/m² | - |
* Rain latest hour (hover to see other rain measurements)
** Current wind speed in m/s (hover to see current wind gust speed)